sensor_id;sensor_type;location;lat;lon;timestamp;temperature;humidity
59007;DHT22;44792;52.760;6.726;2022-10-31T00:00:21;13.90;99.90
59007;DHT22;44792;52.760;6.726;2022-10-31T00:02:47;13.90;99.90
59007;DHT22;44792;52.760;6.726;2022-10-31T00:05:12;13.90;99.90
59007;DHT22;44792;52.760;6.726;2022-10-31T00:07:38;13.90;99.90
59007;DHT22;44792;52.760;6.726;2022-10-31T00:10:04;13.90;99.90
59007;DHT22;44792;52.760;6.726;2022-10-31T00:12:29;13.90;99.90
59007;DHT22;44792;52.760;6.726;2022-10-31T00:14:55;13.90;99.90
59007;DHT22;44792;52.760;6.726;2022-10-31T00:17:20;13.90;99.90
59007;DHT22;44792;52.760;6.726;2022-10-31T00:19:46;13.90;99.90
59007;DHT22;44792;52.760;6.726;2022-10-31T00:22:11;13.90;99.90
59007;DHT22;44792;52.760;6.726;2022-10-31T00:24:37;13.80;99.90
59007;DHT22;44792;52.760;6.726;2022-10-31T00:27:02;13.80;99.90
59007;DHT22;44792;52.760;6.726;2022-10-31T00:29:28;13.80;99.90
59007;DHT22;44792;52.760;6.726;2022-10-31T00:31:53;13.70;99.90
59007;DHT22;44792;52.760;6.726;2022-10-31T00:34:19;13.80;99.90
59007;DHT22;44792;52.760;6.726;2022-10-31T00:36:44;13.70;99.90
59007;DHT22;44792;52.760;6.726;2022-10-31T00:39:10;13.70;99.90
59007;DHT22;44792;52.760;6.726;2022-10-31T00:41:35;13.60;99.90
59007;DHT22;44792;52.760;6.726;2022-10-31T00:44:01;13.60;99.90
59007;DHT22;44792;52.760;6.726;2022-10-31T00:46:26;13.60;99.90
59007;DHT22;44792;52.760;6.726;2022-10-31T00:48:52;13.50;99.90
59007;DHT22;44792;52.760;6.726;2022-10-31T00:51:17;13.50;99.90
59007;DHT22;44792;52.760;6.726;2022-10-31T00:53:43;13.50;99.90
59007;DHT22;44792;52.760;6.726;2022-10-31T00:56:09;13.50;99.90
59007;DHT22;44792;52.760;6.726;2022-10-31T00:58:34;13.40;99.90
59007;DHT22;44792;52.760;6.726;2022-10-31T01:01:00;13.40;99.90
59007;DHT22;44792;52.760;6.726;2022-10-31T01:03:28;13.40;99.90
59007;DHT22;44792;52.760;6.726;2022-10-31T01:06:07;13.30;99.90
59007;DHT22;44792;52.760;6.726;2022-10-31T01:08:33;13.30;99.90
59007;DHT22;44792;52.760;6.726;2022-10-31T01:13:30;13.30;99.90
59007;DHT22;44792;52.760;6.726;2022-10-31T01:15:57;13.30;99.90
59007;DHT22;44792;52.760;6.726;2022-10-31T01:18:23;13.30;99.90
59007;DHT22;44792;52.760;6.726;2022-10-31T01:20:57;13.30;99.90
59007;DHT22;44792;52.760;6.726;2022-10-31T01:23:23;13.30;99.90
59007;DHT22;44792;52.760;6.726;2022-10-31T01:25:49;13.30;99.90
59007;DHT22;44792;52.760;6.726;2022-10-31T01:28:14;13.30;99.90
59007;DHT22;44792;52.760;6.726;2022-10-31T01:30:40;13.30;99.90
59007;DHT22;44792;52.760;6.726;2022-10-31T01:33:05;13.30;99.90
59007;DHT22;44792;52.760;6.726;2022-10-31T01:35:31;13.30;99.90
59007;DHT22;44792;52.760;6.726;2022-10-31T01:37:56;13.30;99.90
59007;DHT22;44792;52.760;6.726;2022-10-31T01:40:22;13.30;99.90
59007;DHT22;44792;52.760;6.726;2022-10-31T01:42:47;13.30;99.90
59007;DHT22;44792;52.760;6.726;2022-10-31T01:45:14;13.30;99.90
59007;DHT22;44792;52.760;6.726;2022-10-31T01:47:43;13.30;99.90
59007;DHT22;44792;52.760;6.726;2022-10-31T01:50:14;13.30;99.90
59007;DHT22;44792;52.760;6.726;2022-10-31T01:52:46;13.30;99.90
59007;DHT22;44792;52.760;6.726;2022-10-31T01:55:16;13.30;99.90
59007;DHT22;44792;52.760;6.726;2022-10-31T01:57:45;13.30;99.90
59007;DHT22;44792;52.760;6.726;2022-10-31T02:00:13;13.30;99.90
59007;DHT22;44792;52.760;6.726;2022-10-31T02:02:39;13.30;99.90
59007;DHT22;44792;52.760;6.726;2022-10-31T02:05:07;13.30;99.90
59007;DHT22;44792;52.760;6.726;2022-10-31T02:07:59;13.20;99.90
59007;DHT22;44792;52.760;6.726;2022-10-31T02:10:24;13.20;99.90
59007;DHT22;44792;52.760;6.726;2022-10-31T02:12:51;13.20;99.90
59007;DHT22;44792;52.760;6.726;2022-10-31T02:15:18;13.20;99.90
59007;DHT22;44792;52.760;6.726;2022-10-31T02:17:44;13.10;99.90
59007;DHT22;44792;52.760;6.726;2022-10-31T02:34:01;13.00;99.90
59007;DHT22;44792;52.760;6.726;2022-10-31T02:36:40;13.00;99.90
59007;DHT22;44792;52.760;6.726;2022-10-31T02:39:22;12.90;99.90
59007;DHT22;44792;52.760;6.726;2022-10-31T02:42:01;12.90;99.90
59007;DHT22;44792;52.760;6.726;2022-10-31T02:44:35;12.80;99.90
59007;DHT22;44792;52.760;6.726;2022-10-31T02:47:37;12.80;99.90
59007;DHT22;44792;52.760;6.726;2022-10-31T02:50:19;12.70;99.90
59007;DHT22;44792;52.760;6.726;2022-10-31T02:52:51;12.70;99.90
59007;DHT22;44792;52.760;6.726;2022-10-31T02:57:58;12.60;99.90
59007;DHT22;44792;52.760;6.726;2022-10-31T03:00:26;12.60;99.90
59007;DHT22;44792;52.760;6.726;2022-10-31T03:06:00;12.60;99.90
59007;DHT22;44792;52.760;6.726;2022-10-31T03:08:50;12.60;99.90
59007;DHT22;44792;52.760;6.726;2022-10-31T03:11:20;12.50;99.90
59007;DHT22;44792;52.760;6.726;2022-10-31T03:13:51;12.40;99.90
59007;DHT22;44792;52.760;6.726;2022-10-31T03:19:03;12.30;99.90
59007;DHT22;44792;52.760;6.726;2022-10-31T03:24:10;12.20;99.90
59007;DHT22;44792;52.760;6.726;2022-10-31T03:26:39;12.20;99.90
59007;DHT22;44792;52.760;6.726;2022-10-31T03:29:08;12.20;99.90
59007;DHT22;44792;52.760;6.726;2022-10-31T03:31:47;12.10;99.90
59007;DHT22;44792;52.760;6.726;2022-10-31T03:34:16;12.00;99.90
59007;DHT22;44792;52.760;6.726;2022-10-31T03:36:44;12.00;99.90
59007;DHT22;44792;52.760;6.726;2022-10-31T03:39:16;12.00;99.90
59007;DHT22;44792;52.760;6.726;2022-10-31T03:41:45;12.00;99.90
59007;DHT22;44792;52.760;6.726;2022-10-31T03:44:16;12.00;99.90
59007;DHT22;44792;52.760;6.726;2022-10-31T03:46:43;11.90;99.90
59007;DHT22;44792;52.760;6.726;2022-10-31T03:49:09;11.80;99.90
59007;DHT22;44792;52.760;6.726;2022-10-31T03:52:02;11.90;99.90
59007;DHT22;44792;52.760;6.726;2022-10-31T03:54:41;11.80;99.90
59007;DHT22;44792;52.760;6.726;2022-10-31T04:00:03;11.80;99.90
59007;DHT22;44792;52.760;6.726;2022-10-31T04:02:31;11.70;99.90
59007;DHT22;44792;52.760;6.726;2022-10-31T04:04:58;11.70;99.90
59007;DHT22;44792;52.760;6.726;2022-10-31T04:07:28;11.60;99.90
59007;DHT22;44792;52.760;6.726;2022-10-31T04:09:56;11.60;99.90
59007;DHT22;44792;52.760;6.726;2022-10-31T04:12:24;11.60;99.90
59007;DHT22;44792;52.760;6.726;2022-10-31T04:14:50;11.50;99.90
59007;DHT22;44792;52.760;6.726;2022-10-31T04:17:19;11.40;99.90
59007;DHT22;44792;52.760;6.726;2022-10-31T04:19:46;11.40;99.90
59007;DHT22;44792;52.760;6.726;2022-10-31T04:22:12;11.40;99.90
59007;DHT22;44792;52.760;6.726;2022-10-31T04:24:39;11.30;99.90
59007;DHT22;44792;52.760;6.726;2022-10-31T04:27:05;11.30;99.90
59007;DHT22;44792;52.760;6.726;2022-10-31T04:29:31;11.20;99.90
59007;DHT22;44792;52.760;6.726;2022-10-31T04:31:56;11.20;99.90
59007;DHT22;44792;52.760;6.726;2022-10-31T04:34:22;11.10;99.90
59007;DHT22;44792;52.760;6.726;2022-10-31T04:36:47;11.10;99.90
59007;DHT22;44792;52.760;6.726;2022-10-31T04:39:13;10.90;99.90
59007;DHT22;44792;52.760;6.726;2022-10-31T04:41:38;10.90;99.90
59007;DHT22;44792;52.760;6.726;2022-10-31T04:44:04;10.90;99.90
59007;DHT22;44792;52.760;6.726;2022-10-31T04:46:29;10.90;99.90
59007;DHT22;44792;52.760;6.726;2022-10-31T04:48:55;10.80;99.90
59007;DHT22;44792;52.760;6.726;2022-10-31T04:51:21;10.70;99.90
59007;DHT22;44792;52.760;6.726;2022-10-31T04:53:46;10.80;99.90
59007;DHT22;44792;52.760;6.726;2022-10-31T04:56:12;10.80;99.90
59007;DHT22;44792;52.760;6.726;2022-10-31T04:58:37;10.80;99.90
59007;DHT22;44792;52.760;6.726;2022-10-31T05:01:03;10.80;99.90
59007;DHT22;44792;52.760;6.726;2022-10-31T05:03:28;10.70;99.90
59007;DHT22;44792;52.760;6.726;2022-10-31T05:05:54;10.70;99.90
59007;DHT22;44792;52.760;6.726;2022-10-31T05:08:19;10.60;99.90
59007;DHT22;44792;52.760;6.726;2022-10-31T05:10:45;10.50;99.90
59007;DHT22;44792;52.760;6.726;2022-10-31T05:13:10;10.30;99.90
59007;DHT22;44792;52.760;6.726;2022-10-31T05:15:36;10.30;99.90
59007;DHT22;44792;52.760;6.726;2022-10-31T05:18:02;10.30;99.90
59007;DHT22;44792;52.760;6.726;2022-10-31T05:20:29;10.20;99.90
59007;DHT22;44792;52.760;6.726;2022-10-31T05:22:56;10.30;99.90
59007;DHT22;44792;52.760;6.726;2022-10-31T05:25:24;10.30;99.90
59007;DHT22;44792;52.760;6.726;2022-10-31T05:27:52;10.30;99.90
59007;DHT22;44792;52.760;6.726;2022-10-31T05:30:23;10.30;99.90
59007;DHT22;44792;52.760;6.726;2022-10-31T05:32:50;10.20;99.90
59007;DHT22;44792;52.760;6.726;2022-10-31T05:35:27;10.10;99.90
59007;DHT22;44792;52.760;6.726;2022-10-31T05:37:53;10.20;99.90
59007;DHT22;44792;52.760;6.726;2022-10-31T05:40:19;10.00;99.90
59007;DHT22;44792;52.760;6.726;2022-10-31T05:42:46;9.90;99.90
59007;DHT22;44792;52.760;6.726;2022-10-31T05:45:14;9.80;99.90
59007;DHT22;44792;52.760;6.726;2022-10-31T05:47:41;9.70;99.90
59007;DHT22;44792;52.760;6.726;2022-10-31T05:50:08;9.60;99.90
59007;DHT22;44792;52.760;6.726;2022-10-31T05:52:34;9.60;99.90
59007;DHT22;44792;52.760;6.726;2022-10-31T05:54:59;9.60;99.90
59007;DHT22;44792;52.760;6.726;2022-10-31T05:57:25;9.50;99.90
59007;DHT22;44792;52.760;6.726;2022-10-31T05:59:50;9.60;99.90
59007;DHT22;44792;52.760;6.726;2022-10-31T06:02:20;9.60;99.90
59007;DHT22;44792;52.760;6.726;2022-10-31T06:04:45;9.70;99.90
59007;DHT22;44792;52.760;6.726;2022-10-31T06:07:11;9.60;99.90
59007;DHT22;44792;52.760;6.726;2022-10-31T06:09:36;9.50;99.90
59007;DHT22;44792;52.760;6.726;2022-10-31T06:12:02;9.50;99.90
59007;DHT22;44792;52.760;6.726;2022-10-31T06:14:27;9.40;99.90
59007;DHT22;44792;52.760;6.726;2022-10-31T06:16:55;9.40;99.90
59007;DHT22;44792;52.760;6.726;2022-10-31T06:19:20;9.30;99.90
59007;DHT22;44792;52.760;6.726;2022-10-31T06:21:46;9.30;99.90
59007;DHT22;44792;52.760;6.726;2022-10-31T06:24:11;9.50;99.90
59007;DHT22;44792;52.760;6.726;2022-10-31T06:26:37;9.50;99.90
59007;DHT22;44792;52.760;6.726;2022-10-31T06:29:02;9.40;99.90
59007;DHT22;44792;52.760;6.726;2022-10-31T06:31:28;9.40;99.90
59007;DHT22;44792;52.760;6.726;2022-10-31T06:33:53;9.30;99.90
59007;DHT22;44792;52.760;6.726;2022-10-31T06:36:19;9.20;99.90
59007;DHT22;44792;52.760;6.726;2022-10-31T06:38:45;9.30;99.90
59007;DHT22;44792;52.760;6.726;2022-10-31T06:41:10;9.40;99.90
59007;DHT22;44792;52.760;6.726;2022-10-31T06:43:36;9.50;99.90
59007;DHT22;44792;52.760;6.726;2022-10-31T06:46:03;9.40;99.90
59007;DHT22;44792;52.760;6.726;2022-10-31T06:48:29;9.40;99.90
59007;DHT22;44792;52.760;6.726;2022-10-31T06:51:00;9.40;99.90
59007;DHT22;44792;52.760;6.726;2022-10-31T06:53:27;9.40;99.90
59007;DHT22;44792;52.760;6.726;2022-10-31T06:55:55;9.50;99.90
59007;DHT22;44792;52.760;6.726;2022-10-31T06:58:21;9.60;99.90
59007;DHT22;44792;52.760;6.726;2022-10-31T07:00:47;9.60;99.90
59007;DHT22;44792;52.760;6.726;2022-10-31T07:03:13;9.60;99.90
59007;DHT22;44792;52.760;6.726;2022-10-31T07:05:39;9.60;99.90
59007;DHT22;44792;52.760;6.726;2022-10-31T07:08:07;9.70;99.90
59007;DHT22;44792;52.760;6.726;2022-10-31T07:10:35;9.60;99.90
59007;DHT22;44792;52.760;6.726;2022-10-31T07:13:03;9.60;99.90
59007;DHT22;44792;52.760;6.726;2022-10-31T07:15:32;9.70;99.90
59007;DHT22;44792;52.760;6.726;2022-10-31T07:18:02;9.70;99.90
59007;DHT22;44792;52.760;6.726;2022-10-31T07:20:29;9.80;99.90
59007;DHT22;44792;52.760;6.726;2022-10-31T07:22:54;9.80;99.90
59007;DHT22;44792;52.760;6.726;2022-10-31T07:25:20;9.80;99.90
59007;DHT22;44792;52.760;6.726;2022-10-31T07:27:46;9.70;99.90
59007;DHT22;44792;52.760;6.726;2022-10-31T07:30:12;9.70;99.90
59007;DHT22;44792;52.760;6.726;2022-10-31T07:32:46;9.70;99.90
59007;DHT22;44792;52.760;6.726;2022-10-31T07:35:14;9.70;99.90
59007;DHT22;44792;52.760;6.726;2022-10-31T07:37:40;9.70;99.90
59007;DHT22;44792;52.760;6.726;2022-10-31T07:40:07;9.80;99.90
59007;DHT22;44792;52.760;6.726;2022-10-31T07:42:40;9.70;99.90
59007;DHT22;44792;52.760;6.726;2022-10-31T07:45:08;9.80;99.90
59007;DHT22;44792;52.760;6.726;2022-10-31T07:48:00;9.80;99.90
59007;DHT22;44792;52.760;6.726;2022-10-31T07:50:30;9.90;99.90
59007;DHT22;44792;52.760;6.726;2022-10-31T07:53:03;9.90;99.90
59007;DHT22;44792;52.760;6.726;2022-10-31T07:55:29;9.90;99.90
59007;DHT22;44792;52.760;6.726;2022-10-31T07:58:16;9.80;99.90
59007;DHT22;44792;52.760;6.726;2022-10-31T08:00:43;9.80;99.90
59007;DHT22;44792;52.760;6.726;2022-10-31T08:03:11;9.80;99.90
59007;DHT22;44792;52.760;6.726;2022-10-31T08:05:37;9.80;99.90
59007;DHT22;44792;52.760;6.726;2022-10-31T08:08:04;9.90;99.90
59007;DHT22;44792;52.760;6.726;2022-10-31T08:10:31;9.90;99.90
59007;DHT22;44792;52.760;6.726;2022-10-31T08:13:02;9.90;99.90
59007;DHT22;44792;52.760;6.726;2022-10-31T08:15:29;10.00;99.90
59007;DHT22;44792;52.760;6.726;2022-10-31T08:17:55;10.00;99.90
59007;DHT22;44792;52.760;6.726;2022-10-31T08:20:21;10.00;99.90
59007;DHT22;44792;52.760;6.726;2022-10-31T08:22:57;10.20;99.90
59007;DHT22;44792;52.760;6.726;2022-10-31T08:25:24;10.30;99.90
59007;DHT22;44792;52.760;6.726;2022-10-31T08:27:51;10.30;99.90
59007;DHT22;44792;52.760;6.726;2022-10-31T08:30:18;10.50;99.90
59007;DHT22;44792;52.760;6.726;2022-10-31T08:32:43;10.50;99.90
59007;DHT22;44792;52.760;6.726;2022-10-31T08:35:09;10.50;99.90
59007;DHT22;44792;52.760;6.726;2022-10-31T08:37:34;10.50;99.90
59007;DHT22;44792;52.760;6.726;2022-10-31T08:40:00;10.60;99.90
59007;DHT22;44792;52.760;6.726;2022-10-31T08:42:25;10.70;99.90
59007;DHT22;44792;52.760;6.726;2022-10-31T08:44:51;10.80;99.90
59007;DHT22;44792;52.760;6.726;2022-10-31T08:47:16;10.80;99.90
59007;DHT22;44792;52.760;6.726;2022-10-31T08:49:42;10.90;99.90
59007;DHT22;44792;52.760;6.726;2022-10-31T08:52:07;11.00;99.90
59007;DHT22;44792;52.760;6.726;2022-10-31T08:54:33;11.00;99.90
59007;DHT22;44792;52.760;6.726;2022-10-31T08:56:58;11.00;99.90
59007;DHT22;44792;52.760;6.726;2022-10-31T08:59:24;11.00;99.90
59007;DHT22;44792;52.760;6.726;2022-10-31T09:01:50;11.10;99.90
59007;DHT22;44792;52.760;6.726;2022-10-31T09:04:15;11.10;99.90
59007;DHT22;44792;52.760;6.726;2022-10-31T09:06:41;11.20;99.90
59007;DHT22;44792;52.760;6.726;2022-10-31T09:09:06;11.30;99.90
59007;DHT22;44792;52.760;6.726;2022-10-31T09:11:32;11.30;99.90
59007;DHT22;44792;52.760;6.726;2022-10-31T09:13:58;11.40;99.90
59007;DHT22;44792;52.760;6.726;2022-10-31T09:16:23;11.50;99.90
59007;DHT22;44792;52.760;6.726;2022-10-31T09:18:49;11.50;99.90
59007;DHT22;44792;52.760;6.726;2022-10-31T09:21:14;11.50;99.90
59007;DHT22;44792;52.760;6.726;2022-10-31T09:23:40;11.60;99.90
59007;DHT22;44792;52.760;6.726;2022-10-31T09:26:05;11.60;99.90
59007;DHT22;44792;52.760;6.726;2022-10-31T09:28:31;11.60;99.90
59007;DHT22;44792;52.760;6.726;2022-10-31T09:30:57;11.70;99.90
59007;DHT22;44792;52.760;6.726;2022-10-31T09:33:23;11.70;99.90
59007;DHT22;44792;52.760;6.726;2022-10-31T09:35:48;11.80;99.90
59007;DHT22;44792;52.760;6.726;2022-10-31T09:38:19;11.80;99.90
59007;DHT22;44792;52.760;6.726;2022-10-31T09:40:47;11.80;99.90
59007;DHT22;44792;52.760;6.726;2022-10-31T09:43:39;11.90;99.90
59007;DHT22;44792;52.760;6.726;2022-10-31T09:51:39;12.10;99.90
59007;DHT22;44792;52.760;6.726;2022-10-31T09:54:29;12.10;99.90
59007;DHT22;44792;52.760;6.726;2022-10-31T09:56:58;12.20;99.90
59007;DHT22;44792;52.760;6.726;2022-10-31T09:59:33;12.30;99.90
59007;DHT22;44792;52.760;6.726;2022-10-31T10:03:06;12.40;99.90
59007;DHT22;44792;52.760;6.726;2022-10-31T10:05:19;12.40;99.90
59007;DHT22;44792;52.760;6.726;2022-10-31T10:08:00;12.50;99.90
59007;DHT22;44792;52.760;6.726;2022-10-31T10:13:11;12.60;99.90
59007;DHT22;44792;52.760;6.726;2022-10-31T10:21:26;12.80;99.90
59007;DHT22;44792;52.760;6.726;2022-10-31T10:24:07;12.90;99.90
59007;DHT22;44792;52.760;6.726;2022-10-31T10:29:27;13.10;99.90
59007;DHT22;44792;52.760;6.726;2022-10-31T10:31:58;13.10;99.90
59007;DHT22;44792;52.760;6.726;2022-10-31T10:34:33;13.20;99.90
59007;DHT22;44792;52.760;6.726;2022-10-31T10:37:07;13.20;99.90
59007;DHT22;44792;52.760;6.726;2022-10-31T10:39:41;13.30;99.90
59007;DHT22;44792;52.760;6.726;2022-10-31T10:42:14;13.30;99.90
59007;DHT22;44792;52.760;6.726;2022-10-31T10:44:59;13.30;99.90
59007;DHT22;44792;52.760;6.726;2022-10-31T10:47:55;13.40;99.90
59007;DHT22;44792;52.760;6.726;2022-10-31T10:50:34;13.40;99.90
59007;DHT22;44792;52.760;6.726;2022-10-31T10:53:31;13.40;99.90
59007;DHT22;44792;52.760;6.726;2022-10-31T10:59:03;13.50;99.90
59007;DHT22;44792;52.760;6.726;2022-10-31T11:01:29;13.50;99.90
59007;DHT22;44792;52.760;6.726;2022-10-31T11:03:55;13.60;99.90
59007;DHT22;44792;52.760;6.726;2022-10-31T11:06:22;13.60;99.90
59007;DHT22;44792;52.760;6.726;2022-10-31T11:08:52;13.70;99.90
59007;DHT22;44792;52.760;6.726;2022-10-31T11:13:49;13.80;99.90
59007;DHT22;44792;52.760;6.726;2022-10-31T11:16:36;13.80;99.90
59007;DHT22;44792;52.760;6.726;2022-10-31T11:21:42;13.90;99.90
59007;DHT22;44792;52.760;6.726;2022-10-31T11:26:38;13.90;99.90
59007;DHT22;44792;52.760;6.726;2022-10-31T11:29:05;13.90;99.90
59007;DHT22;44792;52.760;6.726;2022-10-31T11:31:37;13.90;99.90
59007;DHT22;44792;52.760;6.726;2022-10-31T11:34:06;14.00;99.90
59007;DHT22;44792;52.760;6.726;2022-10-31T11:36:35;14.00;99.90
59007;DHT22;44792;52.760;6.726;2022-10-31T11:39:03;14.00;99.90
59007;DHT22;44792;52.760;6.726;2022-10-31T11:41:34;14.10;99.90
59007;DHT22;44792;52.760;6.726;2022-10-31T11:44:02;14.10;99.90
59007;DHT22;44792;52.760;6.726;2022-10-31T11:49:00;14.20;99.90
59007;DHT22;44792;52.760;6.726;2022-10-31T11:51:29;14.30;99.90
59007;DHT22;44792;52.760;6.726;2022-10-31T11:53:57;14.30;99.90
59007;DHT22;44792;52.760;6.726;2022-10-31T11:56:23;14.30;99.90
59007;DHT22;44792;52.760;6.726;2022-10-31T11:59:06;14.40;99.90
59007;DHT22;44792;52.760;6.726;2022-10-31T12:01:40;14.40;99.90
59007;DHT22;44792;52.760;6.726;2022-10-31T12:04:12;14.40;99.90
59007;DHT22;44792;52.760;6.726;2022-10-31T12:06:40;14.40;99.90
59007;DHT22;44792;52.760;6.726;2022-10-31T12:09:21;14.50;99.90
59007;DHT22;44792;52.760;6.726;2022-10-31T12:12:10;14.50;99.90
59007;DHT22;44792;52.760;6.726;2022-10-31T12:14:59;14.50;99.90
59007;DHT22;44792;52.760;6.726;2022-10-31T12:17:50;14.60;99.90
59007;DHT22;44792;52.760;6.726;2022-10-31T12:39:20;14.80;99.90
59007;DHT22;44792;52.760;6.726;2022-10-31T12:42:07;14.80;99.90
59007;DHT22;44792;52.760;6.726;2022-10-31T12:47:35;14.90;99.90
59007;DHT22;44792;52.760;6.726;2022-10-31T12:50:22;14.90;99.90
59007;DHT22;44792;52.760;6.726;2022-10-31T12:52:56;14.90;99.90
59007;DHT22;44792;52.760;6.726;2022-10-31T12:55:47;15.00;99.90
59007;DHT22;44792;52.760;6.726;2022-10-31T12:58:38;15.10;99.90
59007;DHT22;44792;52.760;6.726;2022-10-31T13:01:20;15.00;99.90
59007;DHT22;44792;52.760;6.726;2022-10-31T13:03:58;15.00;99.90
59007;DHT22;44792;52.760;6.726;2022-10-31T13:06:31;15.10;99.90
59007;DHT22;44792;52.760;6.726;2022-10-31T13:09:01;15.10;99.90
59007;DHT22;44792;52.760;6.726;2022-10-31T13:11:34;15.10;99.90
59007;DHT22;44792;52.760;6.726;2022-10-31T13:16:44;15.20;99.90
59007;DHT22;44792;52.760;6.726;2022-10-31T13:19:18;15.30;99.90
59007;DHT22;44792;52.760;6.726;2022-10-31T13:30:18;15.30;99.90
59007;DHT22;44792;52.760;6.726;2022-10-31T13:32:53;15.30;99.90
59007;DHT22;44792;52.760;6.726;2022-10-31T13:35:28;15.30;99.90
59007;DHT22;44792;52.760;6.726;2022-10-31T13:38:15;15.30;99.90
59007;DHT22;44792;52.760;6.726;2022-10-31T13:40:53;15.30;99.90
59007;DHT22;44792;52.760;6.726;2022-10-31T13:43:32;15.40;99.90
59007;DHT22;44792;52.760;6.726;2022-10-31T13:45:59;15.30;99.90
59007;DHT22;44792;52.760;6.726;2022-10-31T13:50:59;15.40;99.90
59007;DHT22;44792;52.760;6.726;2022-10-31T13:53:43;15.40;99.90
59007;DHT22;44792;52.760;6.726;2022-10-31T13:58:34;15.30;99.90
59007;DHT22;44792;52.760;6.726;2022-10-31T14:01:18;15.30;99.90
59007;DHT22;44792;52.760;6.726;2022-10-31T14:03:47;15.30;99.90
59007;DHT22;44792;52.760;6.726;2022-10-31T14:06:21;15.30;99.90
59007;DHT22;44792;52.760;6.726;2022-10-31T14:08:50;15.30;99.90
59007;DHT22;44792;52.760;6.726;2022-10-31T14:11:25;15.30;99.90
59007;DHT22;44792;52.760;6.726;2022-10-31T14:13:54;15.30;99.90
59007;DHT22;44792;52.760;6.726;2022-10-31T14:16:26;15.30;99.90
59007;DHT22;44792;52.760;6.726;2022-10-31T14:19:06;15.30;99.90
59007;DHT22;44792;52.760;6.726;2022-10-31T14:21:46;15.30;99.90
59007;DHT22;44792;52.760;6.726;2022-10-31T14:24:31;15.20;99.90
59007;DHT22;44792;52.760;6.726;2022-10-31T14:27:32;15.20;99.90
59007;DHT22;44792;52.760;6.726;2022-10-31T14:29:47;15.20;99.90
59007;DHT22;44792;52.760;6.726;2022-10-31T14:32:18;15.20;99.90
59007;DHT22;44792;52.760;6.726;2022-10-31T14:34:53;15.20;99.90
59007;DHT22;44792;52.760;6.726;2022-10-31T14:40:27;15.10;99.90
59007;DHT22;44792;52.760;6.726;2022-10-31T14:43:31;15.10;99.90
59007;DHT22;44792;52.760;6.726;2022-10-31T14:49:03;15.10;99.90
59007;DHT22;44792;52.760;6.726;2022-10-31T14:51:41;15.10;99.90
59007;DHT22;44792;52.760;6.726;2022-10-31T14:54:19;15.10;99.90
59007;DHT22;44792;52.760;6.726;2022-10-31T14:56:53;15.10;99.90
59007;DHT22;44792;52.760;6.726;2022-10-31T14:59:23;15.10;99.90
59007;DHT22;44792;52.760;6.726;2022-10-31T15:01:57;15.10;99.90
59007;DHT22;44792;52.760;6.726;2022-10-31T15:04:25;15.00;99.90
59007;DHT22;44792;52.760;6.726;2022-10-31T15:06:57;15.00;99.90
59007;DHT22;44792;52.760;6.726;2022-10-31T15:09:27;15.00;99.90
59007;DHT22;44792;52.760;6.726;2022-10-31T15:11:53;15.00;99.90
59007;DHT22;44792;52.760;6.726;2022-10-31T15:14:25;15.00;99.90
59007;DHT22;44792;52.760;6.726;2022-10-31T15:16:51;15.00;99.90
59007;DHT22;44792;52.760;6.726;2022-10-31T15:19:21;15.00;99.90
59007;DHT22;44792;52.760;6.726;2022-10-31T15:21:51;15.00;99.90
59007;DHT22;44792;52.760;6.726;2022-10-31T15:24:17;15.00;99.90
59007;DHT22;44792;52.760;6.726;2022-10-31T15:26:51;14.90;99.90
59007;DHT22;44792;52.760;6.726;2022-10-31T15:29:20;14.90;99.90
59007;DHT22;44792;52.760;6.726;2022-10-31T15:31:56;14.90;99.90
59007;DHT22;44792;52.760;6.726;2022-10-31T15:34:35;14.90;99.90
59007;DHT22;44792;52.760;6.726;2022-10-31T15:37:02;14.90;99.90
59007;DHT22;44792;52.760;6.726;2022-10-31T15:39:27;14.90;99.90
59007;DHT22;44792;52.760;6.726;2022-10-31T15:41:57;14.80;99.90
59007;DHT22;44792;52.760;6.726;2022-10-31T15:44:30;14.80;99.90
59007;DHT22;44792;52.760;6.726;2022-10-31T15:47:03;14.80;99.90
59007;DHT22;44792;52.760;6.726;2022-10-31T15:55:01;14.70;99.90
59007;DHT22;44792;52.760;6.726;2022-10-31T15:57:28;14.70;99.90
59007;DHT22;44792;52.760;6.726;2022-10-31T15:59:55;14.70;99.90
59007;DHT22;44792;52.760;6.726;2022-10-31T16:02:23;14.60;99.90
59007;DHT22;44792;52.760;6.726;2022-10-31T16:07:19;14.60;99.90
59007;DHT22;44792;52.760;6.726;2022-10-31T16:09:56;14.70;99.90
59007;DHT22;44792;52.760;6.726;2022-10-31T16:12:23;14.70;99.90
59007;DHT22;44792;52.760;6.726;2022-10-31T16:14:51;14.80;99.90
59007;DHT22;44792;52.760;6.726;2022-10-31T16:17:20;15.00;99.90
59007;DHT22;44792;52.760;6.726;2022-10-31T16:19:53;15.00;99.90
59007;DHT22;44792;52.760;6.726;2022-10-31T16:22:25;15.00;99.90
59007;DHT22;44792;52.760;6.726;2022-10-31T16:24:54;14.90;99.90
59007;DHT22;44792;52.760;6.726;2022-10-31T16:27:23;14.80;99.90
59007;DHT22;44792;52.760;6.726;2022-10-31T16:29:52;14.80;99.90
59007;DHT22;44792;52.760;6.726;2022-10-31T16:32:31;14.80;99.90
59007;DHT22;44792;52.760;6.726;2022-10-31T16:37:33;14.70;99.90
59007;DHT22;44792;52.760;6.726;2022-10-31T16:39:59;14.70;99.90
59007;DHT22;44792;52.760;6.726;2022-10-31T16:42:24;14.70;99.90
59007;DHT22;44792;52.760;6.726;2022-10-31T16:44:50;14.70;99.90
59007;DHT22;44792;52.760;6.726;2022-10-31T16:47:17;14.70;99.90
59007;DHT22;44792;52.760;6.726;2022-10-31T16:49:43;14.60;99.90
59007;DHT22;44792;52.760;6.726;2022-10-31T16:52:11;14.60;99.90
59007;DHT22;44792;52.760;6.726;2022-10-31T16:54:36;14.60;99.90
59007;DHT22;44792;52.760;6.726;2022-10-31T16:57:03;14.60;99.90
59007;DHT22;44792;52.760;6.726;2022-10-31T16:59:31;14.60;99.90
59007;DHT22;44792;52.760;6.726;2022-10-31T17:01:59;14.60;99.90
59007;DHT22;44792;52.760;6.726;2022-10-31T17:04:25;14.60;99.90
59007;DHT22;44792;52.760;6.726;2022-10-31T17:06:50;14.60;99.90
59007;DHT22;44792;52.760;6.726;2022-10-31T17:09:16;14.70;99.90
59007;DHT22;44792;52.760;6.726;2022-10-31T17:11:46;14.70;99.90
59007;DHT22;44792;52.760;6.726;2022-10-31T17:14:13;14.60;99.90
59007;DHT22;44792;52.760;6.726;2022-10-31T17:16:38;14.70;99.90
59007;DHT22;44792;52.760;6.726;2022-10-31T17:19:04;14.70;99.90
59007;DHT22;44792;52.760;6.726;2022-10-31T17:21:30;14.70;99.90
59007;DHT22;44792;52.760;6.726;2022-10-31T17:23:55;14.70;99.90
59007;DHT22;44792;52.760;6.726;2022-10-31T17:26:21;14.70;99.90
59007;DHT22;44792;52.760;6.726;2022-10-31T17:28:47;14.70;99.90
59007;DHT22;44792;52.760;6.726;2022-10-31T17:31:21;14.70;99.90
59007;DHT22;44792;52.760;6.726;2022-10-31T17:33:48;14.70;99.90
59007;DHT22;44792;52.760;6.726;2022-10-31T17:36:13;14.70;99.90
59007;DHT22;44792;52.760;6.726;2022-10-31T17:38:39;14.70;99.90
59007;DHT22;44792;52.760;6.726;2022-10-31T17:41:05;14.70;99.90
59007;DHT22;44792;52.760;6.726;2022-10-31T17:43:31;14.70;99.90